sensor_id;sensor_type;location;lat;lon;timestamp;P1;durP1;ratioP1;P2;durP2;ratioP2
26181;SDS011;13927;51.534;11.866;2022-07-23T00:01:33;8.38;;;7.47;;
26181;SDS011;13927;51.534;11.866;2022-07-23T00:04:00;8.25;;;6.57;;
26181;SDS011;13927;51.534;11.866;2022-07-23T00:06:26;7.80;;;6.68;;
26181;SDS011;13927;51.534;11.866;2022-07-23T00:08:52;9.20;;;7.18;;
26181;SDS011;13927;51.534;11.866;2022-07-23T00:11:18;8.38;;;7.43;;
26181;SDS011;13927;51.534;11.866;2022-07-23T00:13:43;8.48;;;7.57;;
26181;SDS011;13927;51.534;11.866;2022-07-23T00:16:09;8.07;;;6.70;;
26181;SDS011;13927;51.534;11.866;2022-07-23T00:18:35;7.20;;;6.50;;
26181;SDS011;13927;51.534;11.866;2022-07-23T00:21:01;9.07;;;7.43;;
26181;SDS011;13927;51.534;11.866;2022-07-23T00:23:27;8.27;;;7.28;;
26181;SDS011;13927;51.534;11.866;2022-07-23T00:25:54;10.23;;;7.68;;
26181;SDS011;13927;51.534;11.866;2022-07-23T00:28:20;9.18;;;8.25;;
26181;SDS011;13927;51.534;11.866;2022-07-23T00:30:46;8.85;;;7.00;;
26181;SDS011;13927;51.534;11.866;2022-07-23T00:33:12;10.98;;;7.40;;
26181;SDS011;13927;51.534;11.866;2022-07-23T00:35:38;7.85;;;7.00;;
26181;SDS011;13927;51.534;11.866;2022-07-23T00:38:06;7.22;;;6.47;;
26181;SDS011;13927;51.534;11.866;2022-07-23T00:40:34;7.40;;;5.95;;
26181;SDS011;13927;51.534;11.866;2022-07-23T00:43:02;9.02;;;7.22;;
26181;SDS011;13927;51.534;11.866;2022-07-23T00:45:28;8.63;;;7.32;;
26181;SDS011;13927;51.534;11.866;2022-07-23T00:47:55;11.52;;;8.40;;
26181;SDS011;13927;51.534;11.866;2022-07-23T00:50:22;10.18;;;8.13;;
26181;SDS011;13927;51.534;11.866;2022-07-23T00:52:48;9.38;;;8.48;;
26181;SDS011;13927;51.534;11.866;2022-07-23T00:55:14;10.98;;;8.95;;
26181;SDS011;13927;51.534;11.866;2022-07-23T00:57:40;12.05;;;9.82;;
26181;SDS011;13927;51.534;11.866;2022-07-23T01:00:08;10.40;;;9.30;;
26181;SDS011;13927;51.534;11.866;2022-07-23T01:02:38;11.00;;;9.38;;
26181;SDS011;13927;51.534;11.866;2022-07-23T01:05:05;11.27;;;9.45;;
26181;SDS011;13927;51.534;11.866;2022-07-23T01:07:31;9.02;;;8.13;;
26181;SDS011;13927;51.534;11.866;2022-07-23T01:09:58;11.48;;;9.43;;
26181;SDS011;13927;51.534;11.866;2022-07-23T01:12:24;9.32;;;7.68;;
26181;SDS011;13927;51.534;11.866;2022-07-23T01:14:56;8.43;;;7.60;;
26181;SDS011;13927;51.534;11.866;2022-07-23T01:17:24;12.93;;;9.15;;
26181;SDS011;13927;51.534;11.866;2022-07-23T01:19:51;12.88;;;9.52;;
26181;SDS011;13927;51.534;11.866;2022-07-23T01:22:19;10.57;;;8.80;;
26181;SDS011;13927;51.534;11.866;2022-07-23T01:24:45;9.35;;;8.23;;
26181;SDS011;13927;51.534;11.866;2022-07-23T01:27:12;10.40;;;8.23;;
26181;SDS011;13927;51.534;11.866;2022-07-23T01:29:38;10.45;;;9.30;;
26181;SDS011;13927;51.534;11.866;2022-07-23T01:32:04;12.60;;;9.77;;
26181;SDS011;13927;51.534;11.866;2022-07-23T01:34:30;10.77;;;9.77;;
26181;SDS011;13927;51.534;11.866;2022-07-23T01:36:56;11.05;;;8.82;;
26181;SDS011;13927;51.534;11.866;2022-07-23T01:39:22;12.80;;;10.93;;
26181;SDS011;13927;51.534;11.866;2022-07-23T01:41:48;13.80;;;10.25;;
26181;SDS011;13927;51.534;11.866;2022-07-23T01:44:13;14.02;;;10.52;;
26181;SDS011;13927;51.534;11.866;2022-07-23T01:46:40;11.52;;;10.32;;
26181;SDS011;13927;51.534;11.866;2022-07-23T01:49:06;14.13;;;10.63;;
26181;SDS011;13927;51.534;11.866;2022-07-23T01:51:31;13.93;;;10.90;;
26181;SDS011;13927;51.534;11.866;2022-07-23T01:53:57;16.77;;;12.70;;
26181;SDS011;13927;51.534;11.866;2022-07-23T01:56:23;15.40;;;12.38;;
26181;SDS011;13927;51.534;11.866;2022-07-23T01:58:49;14.93;;;13.30;;
26181;SDS011;13927;51.534;11.866;2022-07-23T02:01:14;16.58;;;14.07;;
26181;SDS011;13927;51.534;11.866;2022-07-23T02:03:40;15.95;;;13.00;;
26181;SDS011;13927;51.534;11.866;2022-07-23T02:06:06;15.93;;;13.23;;
26181;SDS011;13927;51.534;11.866;2022-07-23T02:08:32;15.52;;;13.23;;
26181;SDS011;13927;51.534;11.866;2022-07-23T02:10:57;16.33;;;13.00;;
26181;SDS011;13927;51.534;11.866;2022-07-23T02:13:24;14.60;;;12.40;;
26181;SDS011;13927;51.534;11.866;2022-07-23T02:15:49;14.73;;;12.88;;
26181;SDS011;13927;51.534;11.866;2022-07-23T02:18:15;15.00;;;12.77;;
26181;SDS011;13927;51.534;11.866;2022-07-23T02:20:41;15.80;;;13.32;;
26181;SDS011;13927;51.534;11.866;2022-07-23T02:23:07;17.70;;;12.70;;
26181;SDS011;13927;51.534;11.866;2022-07-23T02:25:33;14.82;;;12.82;;
26181;SDS011;13927;51.534;11.866;2022-07-23T02:27:59;20.88;;;13.50;;
26181;SDS011;13927;51.534;11.866;2022-07-23T02:30:25;21.63;;;13.18;;
26181;SDS011;13927;51.534;11.866;2022-07-23T02:32:51;14.70;;;12.68;;
26181;SDS011;13927;51.534;11.866;2022-07-23T02:35:17;15.00;;;13.50;;
26181;SDS011;13927;51.534;11.866;2022-07-23T02:37:43;14.10;;;12.10;;
26181;SDS011;13927;51.534;11.866;2022-07-23T02:40:09;13.30;;;11.85;;
26181;SDS011;13927;51.534;11.866;2022-07-23T02:42:35;15.27;;;12.60;;
26181;SDS011;13927;51.534;11.866;2022-07-23T02:45:01;16.25;;;13.30;;
26181;SDS011;13927;51.534;11.866;2022-07-23T02:47:26;14.55;;;13.05;;
26181;SDS011;13927;51.534;11.866;2022-07-23T02:49:52;19.00;;;14.70;;
26181;SDS011;13927;51.534;11.866;2022-07-23T02:52:18;15.48;;;12.95;;
26181;SDS011;13927;51.534;11.866;2022-07-23T02:54:44;13.60;;;12.23;;
26181;SDS011;13927;51.534;11.866;2022-07-23T02:57:10;16.42;;;12.95;;
26181;SDS011;13927;51.534;11.866;2022-07-23T02:59:35;14.90;;;13.38;;
26181;SDS011;13927;51.534;11.866;2022-07-23T03:02:01;14.45;;;12.40;;
26181;SDS011;13927;51.534;11.866;2022-07-23T03:04:27;14.23;;;12.82;;
26181;SDS011;13927;51.534;11.866;2022-07-23T03:06:53;14.77;;;13.27;;
26181;SDS011;13927;51.534;11.866;2022-07-23T03:09:19;15.10;;;12.73;;
26181;SDS011;13927;51.534;11.866;2022-07-23T03:11:45;15.15;;;13.55;;
26181;SDS011;13927;51.534;11.866;2022-07-23T03:14:10;15.75;;;13.02;;
26181;SDS011;13927;51.534;11.866;2022-07-23T03:16:38;14.38;;;12.85;;
26181;SDS011;13927;51.534;11.866;2022-07-23T03:19:04;17.25;;;13.27;;
26181;SDS011;13927;51.534;11.866;2022-07-23T03:21:30;15.00;;;13.10;;
26181;SDS011;13927;51.534;11.866;2022-07-23T03:23:56;17.42;;;14.35;;
26181;SDS011;13927;51.534;11.866;2022-07-23T03:26:21;14.85;;;12.95;;
26181;SDS011;13927;51.534;11.866;2022-07-23T03:28:50;16.58;;;13.48;;
26181;SDS011;13927;51.534;11.866;2022-07-23T03:31:17;18.88;;;14.85;;
26181;SDS011;13927;51.534;11.866;2022-07-23T03:33:43;19.75;;;14.82;;
26181;SDS011;13927;51.534;11.866;2022-07-23T03:36:08;15.20;;;13.70;;
26181;SDS011;13927;51.534;11.866;2022-07-23T03:38:34;17.40;;;15.07;;
26181;SDS011;13927;51.534;11.866;2022-07-23T03:41:00;18.27;;;14.90;;
26181;SDS011;13927;51.534;11.866;2022-07-23T03:43:26;17.50;;;15.18;;
26181;SDS011;13927;51.534;11.866;2022-07-23T03:45:51;17.55;;;14.88;;
26181;SDS011;13927;51.534;11.866;2022-07-23T03:48:17;20.10;;;15.30;;
26181;SDS011;13927;51.534;11.866;2022-07-23T03:50:43;20.02;;;15.40;;
26181;SDS011;13927;51.534;11.866;2022-07-23T03:53:09;20.65;;;16.67;;
26181;SDS011;13927;51.534;11.866;2022-07-23T03:55:34;23.35;;;18.77;;
26181;SDS011;13927;51.534;11.866;2022-07-23T03:58:00;27.75;;;19.98;;
26181;SDS011;13927;51.534;11.866;2022-07-23T04:00:26;29.55;;;20.33;;
26181;SDS011;13927;51.534;11.866;2022-07-23T04:02:52;26.77;;;20.30;;
26181;SDS011;13927;51.534;11.866;2022-07-23T04:05:18;24.10;;;19.92;;
26181;SDS011;13927;51.534;11.866;2022-07-23T04:07:44;27.00;;;20.75;;
26181;SDS011;13927;51.534;11.866;2022-07-23T04:10:10;28.65;;;20.60;;
26181;SDS011;13927;51.534;11.866;2022-07-23T04:12:36;26.38;;;21.63;;
26181;SDS011;13927;51.534;11.866;2022-07-23T04:15:02;26.73;;;21.63;;
26181;SDS011;13927;51.534;11.866;2022-07-23T04:17:28;29.60;;;22.38;;
26181;SDS011;13927;51.534;11.866;2022-07-23T04:19:55;22.60;;;19.95;;
26181;SDS011;13927;51.534;11.866;2022-07-23T04:22:20;28.65;;;21.65;;
26181;SDS011;13927;51.534;11.866;2022-07-23T04:24:46;27.98;;;22.17;;
26181;SDS011;13927;51.534;11.866;2022-07-23T04:27:12;28.30;;;23.13;;
26181;SDS011;13927;51.534;11.866;2022-07-23T04:29:37;29.42;;;23.10;;
26181;SDS011;13927;51.534;11.866;2022-07-23T04:32:03;29.70;;;23.70;;
26181;SDS011;13927;51.534;11.866;2022-07-23T04:34:30;28.60;;;23.95;;
26181;SDS011;13927;51.534;11.866;2022-07-23T04:36:55;27.77;;;22.60;;
26181;SDS011;13927;51.534;11.866;2022-07-23T04:39:21;25.55;;;22.80;;
26181;SDS011;13927;51.534;11.866;2022-07-23T04:41:47;27.08;;;21.48;;
26181;SDS011;13927;51.534;11.866;2022-07-23T04:44:13;22.83;;;20.38;;
26181;SDS011;13927;51.534;11.866;2022-07-23T04:46:40;24.15;;;20.63;;
26181;SDS011;13927;51.534;11.866;2022-07-23T04:49:05;25.65;;;20.73;;
26181;SDS011;13927;51.534;11.866;2022-07-23T04:51:31;23.92;;;20.50;;
26181;SDS011;13927;51.534;11.866;2022-07-23T04:53:57;24.30;;;18.45;;
26181;SDS011;13927;51.534;11.866;2022-07-23T04:56:22;20.80;;;16.80;;
26181;SDS011;13927;51.534;11.866;2022-07-23T04:58:48;19.50;;;16.15;;
26181;SDS011;13927;51.534;11.866;2022-07-23T05:01:14;16.38;;;14.55;;
26181;SDS011;13927;51.534;11.866;2022-07-23T05:03:40;19.23;;;15.70;;
26181;SDS011;13927;51.534;11.866;2022-07-23T05:06:06;21.65;;;16.00;;
26181;SDS011;13927;51.534;11.866;2022-07-23T05:08:32;18.13;;;15.15;;
26181;SDS011;13927;51.534;11.866;2022-07-23T05:10:57;17.63;;;14.50;;
26181;SDS011;13927;51.534;11.866;2022-07-23T05:13:23;21.38;;;16.25;;
26181;SDS011;13927;51.534;11.866;2022-07-23T05:15:49;17.65;;;14.93;;
26181;SDS011;13927;51.534;11.866;2022-07-23T05:18:15;19.33;;;16.30;;
26181;SDS011;13927;51.534;11.866;2022-07-23T05:20:41;19.25;;;16.20;;
26181;SDS011;13927;51.534;11.866;2022-07-23T05:23:06;19.65;;;16.35;;
26181;SDS011;13927;51.534;11.866;2022-07-23T05:25:33;20.52;;;17.65;;
26181;SDS011;13927;51.534;11.866;2022-07-23T05:27:58;21.42;;;16.80;;
26181;SDS011;13927;51.534;11.866;2022-07-23T05:30:24;20.63;;;17.00;;
26181;SDS011;13927;51.534;11.866;2022-07-23T05:32:50;18.30;;;15.65;;
26181;SDS011;13927;51.534;11.866;2022-07-23T05:35:15;20.23;;;18.13;;
26181;SDS011;13927;51.534;11.866;2022-07-23T05:37:41;18.75;;;16.73;;
26181;SDS011;13927;51.534;11.866;2022-07-23T05:40:08;19.52;;;17.27;;
26181;SDS011;13927;51.534;11.866;2022-07-23T05:42:36;20.58;;;17.52;;
26181;SDS011;13927;51.534;11.866;2022-07-23T05:45:04;18.60;;;16.55;;
26181;SDS011;13927;51.534;11.866;2022-07-23T05:47:42;17.90;;;15.95;;
26181;SDS011;13927;51.534;11.866;2022-07-23T05:50:11;20.05;;;16.38;;
26181;SDS011;13927;51.534;11.866;2022-07-23T05:52:38;23.30;;;18.05;;
26181;SDS011;13927;51.534;11.866;2022-07-23T05:55:05;20.27;;;17.60;;
26181;SDS011;13927;51.534;11.866;2022-07-23T05:57:32;19.63;;;17.52;;
26181;SDS011;13927;51.534;11.866;2022-07-23T05:59:57;20.90;;;18.73;;
26181;SDS011;13927;51.534;11.866;2022-07-23T06:02:23;21.48;;;18.17;;
26181;SDS011;13927;51.534;11.866;2022-07-23T06:04:49;20.40;;;18.02;;
26181;SDS011;13927;51.534;11.866;2022-07-23T06:07:15;22.92;;;18.10;;
26181;SDS011;13927;51.534;11.866;2022-07-23T06:09:40;20.05;;;16.65;;
26181;SDS011;13927;51.534;11.866;2022-07-23T06:12:06;23.45;;;16.98;;
26181;SDS011;13927;51.534;11.866;2022-07-23T06:14:33;21.55;;;17.27;;
26181;SDS011;13927;51.534;11.866;2022-07-23T06:16:59;20.52;;;18.25;;
26181;SDS011;13927;51.534;11.866;2022-07-23T06:19:25;22.42;;;19.48;;
26181;SDS011;13927;51.534;11.866;2022-07-23T06:21:51;23.00;;;18.63;;
26181;SDS011;13927;51.534;11.866;2022-07-23T06:24:16;21.92;;;18.88;;
26181;SDS011;13927;51.534;11.866;2022-07-23T06:26:42;21.13;;;18.92;;
26181;SDS011;13927;51.534;11.866;2022-07-23T06:29:10;23.50;;;21.00;;
26181;SDS011;13927;51.534;11.866;2022-07-23T06:31:37;25.63;;;22.83;;
26181;SDS011;13927;51.534;11.866;2022-07-23T06:34:03;25.40;;;22.67;;
26181;SDS011;13927;51.534;11.866;2022-07-23T06:36:29;25.80;;;22.98;;
26181;SDS011;13927;51.534;11.866;2022-07-23T06:38:55;27.55;;;23.80;;
26181;SDS011;13927;51.534;11.866;2022-07-23T06:41:21;26.58;;;23.63;;
26181;SDS011;13927;51.534;11.866;2022-07-23T06:43:48;24.17;;;21.67;;
26181;SDS011;13927;51.534;11.866;2022-07-23T06:46:14;24.58;;;21.73;;
26181;SDS011;13927;51.534;11.866;2022-07-23T06:48:41;25.15;;;22.42;;
26181;SDS011;13927;51.534;11.866;2022-07-23T06:51:07;25.60;;;21.02;;
26181;SDS011;13927;51.534;11.866;2022-07-23T06:53:32;25.33;;;22.20;;
26181;SDS011;13927;51.534;11.866;2022-07-23T06:55:59;25.02;;;21.95;;
26181;SDS011;13927;51.534;11.866;2022-07-23T06:58:25;23.90;;;21.42;;
26181;SDS011;13927;51.534;11.866;2022-07-23T07:00:51;25.08;;;22.48;;
26181;SDS011;13927;51.534;11.866;2022-07-23T07:03:17;26.20;;;22.48;;
26181;SDS011;13927;51.534;11.866;2022-07-23T07:05:43;23.88;;;21.50;;
26181;SDS011;13927;51.534;11.866;2022-07-23T07:08:09;25.52;;;23.02;;
26181;SDS011;13927;51.534;11.866;2022-07-23T07:10:35;27.70;;;23.80;;
26181;SDS011;13927;51.534;11.866;2022-07-23T07:13:01;27.30;;;24.27;;
26181;SDS011;13927;51.534;11.866;2022-07-23T07:15:27;26.83;;;23.63;;
26181;SDS011;13927;51.534;11.866;2022-07-23T07:17:52;28.23;;;25.27;;
26181;SDS011;13927;51.534;11.866;2022-07-23T07:20:18;27.23;;;24.52;;
26181;SDS011;13927;51.534;11.866;2022-07-23T07:22:44;26.33;;;23.48;;
26181;SDS011;13927;51.534;11.866;2022-07-23T07:25:10;25.27;;;22.83;;
26181;SDS011;13927;51.534;11.866;2022-07-23T07:27:35;22.77;;;20.33;;
26181;SDS011;13927;51.534;11.866;2022-07-23T07:30:02;22.42;;;20.10;;
26181;SDS011;13927;51.534;11.866;2022-07-23T07:32:30;18.60;;;16.60;;
26181;SDS011;13927;51.534;11.866;2022-07-23T07:34:57;18.33;;;16.33;;
26181;SDS011;13927;51.534;11.866;2022-07-23T07:37:23;19.38;;;17.38;;
26181;SDS011;13927;51.534;11.866;2022-07-23T07:39:49;19.35;;;17.23;;
26181;SDS011;13927;51.534;11.866;2022-07-23T07:42:15;18.60;;;16.77;;
26181;SDS011;13927;51.534;11.866;2022-07-23T07:44:41;19.08;;;16.20;;
26181;SDS011;13927;51.534;11.866;2022-07-23T07:47:06;16.80;;;15.02;;
26181;SDS011;13927;51.534;11.866;2022-07-23T07:49:32;16.45;;;14.63;;
26181;SDS011;13927;51.534;11.866;2022-07-23T07:51:58;17.05;;;15.05;;
26181;SDS011;13927;51.534;11.866;2022-07-23T07:54:24;17.80;;;16.00;;
26181;SDS011;13927;51.534;11.866;2022-07-23T07:56:50;19.25;;;17.27;;
26181;SDS011;13927;51.534;11.866;2022-07-23T07:59:15;19.75;;;17.73;;
26181;SDS011;13927;51.534;11.866;2022-07-23T08:01:41;17.02;;;15.43;;
26181;SDS011;13927;51.534;11.866;2022-07-23T08:04:07;17.30;;;15.45;;
26181;SDS011;13927;51.534;11.866;2022-07-23T08:06:33;15.90;;;13.63;;
26181;SDS011;13927;51.534;11.866;2022-07-23T08:08:58;15.55;;;13.43;;
26181;SDS011;13927;51.534;11.866;2022-07-23T08:11:24;14.00;;;12.60;;
26181;SDS011;13927;51.534;11.866;2022-07-23T08:13:50;17.65;;;14.20;;
26181;SDS011;13927;51.534;11.866;2022-07-23T08:16:16;13.73;;;12.32;;
26181;SDS011;13927;51.534;11.866;2022-07-23T08:18:42;14.95;;;13.43;;
26181;SDS011;13927;51.534;11.866;2022-07-23T08:21:07;16.77;;;14.98;;
26181;SDS011;13927;51.534;11.866;2022-07-23T08:23:33;17.98;;;16.08;;
26181;SDS011;13927;51.534;11.866;2022-07-23T08:25:59;18.85;;;16.85;;
26181;SDS011;13927;51.534;11.866;2022-07-23T08:28:26;20.88;;;18.65;;
26181;SDS011;13927;51.534;11.866;2022-07-23T08:30:52;20.98;;;18.83;;
26181;SDS011;13927;51.534;11.866;2022-07-23T08:33:18;22.48;;;20.08;;
26181;SDS011;13927;51.534;11.866;2022-07-23T08:35:45;22.88;;;20.35;;
26181;SDS011;13927;51.534;11.866;2022-07-23T08:38:14;24.10;;;21.70;;
26181;SDS011;13927;51.534;11.866;2022-07-23T08:40:43;23.63;;;21.40;;
26181;SDS011;13927;51.534;11.866;2022-07-23T08:43:13;26.17;;;23.73;;
26181;SDS011;13927;51.534;11.866;2022-07-23T08:45:42;27.20;;;24.50;;
26181;SDS011;13927;51.534;11.866;2022-07-23T08:48:13;27.80;;;25.05;;
26181;SDS011;13927;51.534;11.866;2022-07-23T08:50:45;27.63;;;24.92;;
26181;SDS011;13927;51.534;11.866;2022-07-23T08:53:14;28.27;;;25.48;;
26181;SDS011;13927;51.534;11.866;2022-07-23T08:55:48;28.00;;;25.30;;
26181;SDS011;13927;51.534;11.866;2022-07-23T08:58:17;29.88;;;26.90;;
26181;SDS011;13927;51.534;11.866;2022-07-23T09:00:43;30.13;;;27.05;;
26181;SDS011;13927;51.534;11.866;2022-07-23T09:03:15;29.70;;;26.80;;
26181;SDS011;13927;51.534;11.866;2022-07-23T09:05:45;24.38;;;22.10;;
26181;SDS011;13927;51.534;11.866;2022-07-23T09:08:12;22.83;;;20.67;;
26181;SDS011;13927;51.534;11.866;2022-07-23T09:10:44;21.70;;;19.65;;
26181;SDS011;13927;51.534;11.866;2022-07-23T09:15:52;16.75;;;15.25;;
26181;SDS011;13927;51.534;11.866;2022-07-23T09:18:27;16.77;;;14.82;;
26181;SDS011;13927;51.534;11.866;2022-07-23T09:23:39;16.55;;;15.02;;
26181;SDS011;13927;51.534;11.866;2022-07-23T09:29:19;16.10;;;14.50;;
26181;SDS011;13927;51.534;11.866;2022-07-23T09:31:51;18.38;;;16.48;;
26181;SDS011;13927;51.534;11.866;2022-07-23T09:34:29;16.73;;;14.68;;
26181;SDS011;13927;51.534;11.866;2022-07-23T09:37:13;14.50;;;13.00;;
26181;SDS011;13927;51.534;11.866;2022-07-23T09:39:43;14.88;;;13.48;;
26181;SDS011;13927;51.534;11.866;2022-07-23T09:42:21;13.93;;;12.50;;
26181;SDS011;13927;51.534;11.866;2022-07-23T09:44:52;17.20;;;13.10;;
26181;SDS011;13927;51.534;11.866;2022-07-23T09:47:19;15.95;;;13.55;;
26181;SDS011;13927;51.534;11.866;2022-07-23T09:50:04;15.98;;;14.02;;
26181;SDS011;13927;51.534;11.866;2022-07-23T09:52:48;16.50;;;14.55;;
26181;SDS011;13927;51.534;11.866;2022-07-23T09:55:15;16.73;;;15.02;;
26181;SDS011;13927;51.534;11.866;2022-07-23T09:57:43;17.45;;;15.05;;
26181;SDS011;13927;51.534;11.866;2022-07-23T10:00:10;19.80;;;15.38;;
26181;SDS011;13927;51.534;11.866;2022-07-23T10:02:38;18.92;;;16.23;;
26181;SDS011;13927;51.534;11.866;2022-07-23T10:05:05;17.45;;;15.65;;
26181;SDS011;13927;51.534;11.866;2022-07-23T10:07:33;17.98;;;16.17;;
26181;SDS011;13927;51.534;11.866;2022-07-23T10:10:02;20.13;;;17.45;;
26181;SDS011;13927;51.534;11.866;2022-07-23T10:12:29;20.70;;;16.15;;
26181;SDS011;13927;51.534;11.866;2022-07-23T10:15:02;17.40;;;15.48;;
26181;SDS011;13927;51.534;11.866;2022-07-23T10:17:31;18.00;;;15.32;;
26181;SDS011;13927;51.534;11.866;2022-07-23T10:19:58;18.23;;;16.33;;
26181;SDS011;13927;51.534;11.866;2022-07-23T10:22:27;19.63;;;15.25;;
26181;SDS011;13927;51.534;11.866;2022-07-23T10:28:01;17.33;;;15.45;;
26181;SDS011;13927;51.534;11.866;2022-07-23T10:31:00;18.35;;;16.15;;
26181;SDS011;13927;51.534;11.866;2022-07-23T10:33:51;16.48;;;14.80;;
26181;SDS011;13927;51.534;11.866;2022-07-23T10:39:07;16.30;;;14.73;;
26181;SDS011;13927;51.534;11.866;2022-07-23T10:41:49;16.55;;;14.55;;
26181;SDS011;13927;51.534;11.866;2022-07-23T10:44:17;16.85;;;15.07;;
26181;SDS011;13927;51.534;11.866;2022-07-23T10:46:54;16.48;;;14.88;;
26181;SDS011;13927;51.534;11.866;2022-07-23T10:49:33;18.98;;;14.75;;
26181;SDS011;13927;51.534;11.866;2022-07-23T10:57:48;17.65;;;15.55;;
26181;SDS011;13927;51.534;11.866;2022-07-23T11:00:28;20.40;;;17.35;;
26181;SDS011;13927;51.534;11.866;2022-07-23T11:03:00;17.20;;;15.50;;
26181;SDS011;13927;51.534;11.866;2022-07-23T11:05:44;16.15;;;14.63;;
26181;SDS011;13927;51.534;11.866;2022-07-23T11:08:12;17.75;;;16.02;;
26181;SDS011;13927;51.534;11.866;2022-07-23T11:24:04;16.88;;;15.15;;
26181;SDS011;13927;51.534;11.866;2022-07-23T11:34:52;16.67;;;14.98;;
26181;SDS011;13927;51.534;11.866;2022-07-23T11:37:28;16.20;;;14.73;;
26181;SDS011;13927;51.534;11.866;2022-07-23T11:39:59;14.35;;;12.90;;
26181;SDS011;13927;51.534;11.866;2022-07-23T11:42:28;16.25;;;14.85;;
26181;SDS011;13927;51.534;11.866;2022-07-23T11:44:53;16.50;;;15.10;;
26181;SDS011;13927;51.534;11.866;2022-07-23T11:47:23;16.58;;;15.15;;
26181;SDS011;13927;51.534;11.866;2022-07-23T11:52:21;15.15;;;13.70;;
26181;SDS011;13927;51.534;11.866;2022-07-23T11:54:58;16.13;;;14.73;;
26181;SDS011;13927;51.534;11.866;2022-07-23T11:57:28;16.77;;;15.25;;
26181;SDS011;13927;51.534;11.866;2022-07-23T12:02:47;15.45;;;13.85;;
26181;SDS011;13927;51.534;11.866;2022-07-23T12:05:23;14.88;;;13.38;;
26181;SDS011;13927;51.534;11.866;2022-07-23T12:07:52;15.98;;;14.27;;
26181;SDS011;13927;51.534;11.866;2022-07-23T12:13:17;16.80;;;15.27;;
26181;SDS011;13927;51.534;11.866;2022-07-23T12:18:16;18.10;;;16.42;;
26181;SDS011;13927;51.534;11.866;2022-07-23T12:20:45;17.08;;;15.57;;
26181;SDS011;13927;51.534;11.866;2022-07-23T12:23:14;16.20;;;14.43;;
26181;SDS011;13927;51.534;11.866;2022-07-23T12:25:45;16.38;;;14.77;;
26181;SDS011;13927;51.534;11.866;2022-07-23T12:28:15;15.32;;;13.73;;
26181;SDS011;13927;51.534;11.866;2022-07-23T12:30:48;16.77;;;15.27;;
26181;SDS011;13927;51.534;11.866;2022-07-23T12:33:34;15.95;;;14.45;;
26181;SDS011;13927;51.534;11.866;2022-07-23T12:36:04;15.57;;;14.15;;
26181;SDS011;13927;51.534;11.866;2022-07-23T12:38:40;13.90;;;12.57;;
26181;SDS011;13927;51.534;11.866;2022-07-23T12:41:16;15.85;;;14.27;;
26181;SDS011;13927;51.534;11.866;2022-07-23T12:43:43;15.70;;;14.20;;
26181;SDS011;13927;51.534;11.866;2022-07-23T12:51:16;14.40;;;12.90;;
26181;SDS011;13927;51.534;11.866;2022-07-23T12:53:56;14.50;;;13.13;;
26181;SDS011;13927;51.534;11.866;2022-07-23T12:56:34;13.35;;;12.15;;
26181;SDS011;13927;51.534;11.866;2022-07-23T13:01:29;14.55;;;11.70;;
26181;SDS011;13927;51.534;11.866;2022-07-23T13:04:04;14.90;;;13.50;;
26181;SDS011;13927;51.534;11.866;2022-07-23T13:06:33;15.00;;;13.68;;
26181;SDS011;13927;51.534;11.866;2022-07-23T13:09:07;14.82;;;13.43;;
26181;SDS011;13927;51.534;11.866;2022-07-23T13:11:37;16.02;;;14.13;;
26181;SDS011;13927;51.534;11.866;2022-07-23T13:14:04;14.82;;;13.35;;
26181;SDS011;13927;51.534;11.866;2022-07-23T13:16:30;13.30;;;12.05;;
26181;SDS011;13927;51.534;11.866;2022-07-23T13:18:58;13.63;;;12.35;;
26181;SDS011;13927;51.534;11.866;2022-07-23T13:21:26;14.35;;;12.95;;
26181;SDS011;13927;51.534;11.866;2022-07-23T13:23:53;13.35;;;12.15;;
26181;SDS011;13927;51.534;11.866;2022-07-23T13:26:19;12.43;;;11.23;;
26181;SDS011;13927;51.534;11.866;2022-07-23T13:28:45;14.35;;;12.88;;
26181;SDS011;13927;51.534;11.866;2022-07-23T13:31:13;13.73;;;12.48;;
26181;SDS011;13927;51.534;11.866;2022-07-23T13:33:39;12.15;;;10.98;;
26181;SDS011;13927;51.534;11.866;2022-07-23T13:36:05;11.25;;;10.27;;
26181;SDS011;13927;51.534;11.866;2022-07-23T13:38:32;13.15;;;11.85;;
26181;SDS011;13927;51.534;11.866;2022-07-23T13:40:57;12.52;;;11.27;;
26181;SDS011;13927;51.534;11.866;2022-07-23T13:43:24;14.82;;;11.38;;
26181;SDS011;13927;51.534;11.866;2022-07-23T13:45:51;13.02;;;11.68;;
26181;SDS011;13927;51.534;11.866;2022-07-23T13:48:18;13.18;;;11.80;;
26181;SDS011;13927;51.534;11.866;2022-07-23T13:50:45;12.48;;;11.45;;
26181;SDS011;13927;51.534;11.866;2022-07-23T13:53:16;12.65;;;11.35;;
26181;SDS011;13927;51.534;11.866;2022-07-23T13:55:48;12.95;;;11.65;;
26181;SDS011;13927;51.534;11.866;2022-07-23T13:58:17;12.68;;;11.55;;
26181;SDS011;13927;51.534;11.866;2022-07-23T14:00:45;12.30;;;11.13;;
26181;SDS011;13927;51.534;11.866;2022-07-23T14:03:13;12.75;;;11.48;;
26181;SDS011;13927;51.534;11.866;2022-07-23T14:05:42;12.07;;;11.00;;
26181;SDS011;13927;51.534;11.866;2022-07-23T14:08:08;13.00;;;11.15;;
26181;SDS011;13927;51.534;11.866;2022-07-23T14:10:34;11.60;;;10.55;;
26181;SDS011;13927;51.534;11.866;2022-07-23T14:13:00;12.35;;;11.25;;
26181;SDS011;13927;51.534;11.866;2022-07-23T14:15:27;13.20;;;12.13;;
26181;SDS011;13927;51.534;11.866;2022-07-23T14:17:55;12.60;;;11.40;;
26181;SDS011;13927;51.534;11.866;2022-07-23T14:20:22;12.55;;;11.50;;
26181;SDS011;13927;51.534;11.866;2022-07-23T14:22:48;11.25;;;10.35;;
26181;SDS011;13927;51.534;11.866;2022-07-23T14:25:15;10.90;;;9.90;;
26181;SDS011;13927;51.534;11.866;2022-07-23T14:27:41;12.75;;;11.45;;
26181;SDS011;13927;51.534;11.866;2022-07-23T14:30:08;10.85;;;9.90;;
26181;SDS011;13927;51.534;11.866;2022-07-23T14:32:35;12.15;;;10.93;;
26181;SDS011;13927;51.534;11.866;2022-07-23T14:35:01;12.68;;;11.40;;
26181;SDS011;13927;51.534;11.866;2022-07-23T14:37:28;12.02;;;10.98;;
26181;SDS011;13927;51.534;11.866;2022-07-23T14:39:54;11.38;;;10.32;;
26181;SDS011;13927;51.534;11.866;2022-07-23T14:42:20;11.52;;;10.40;;
26181;SDS011;13927;51.534;11.866;2022-07-23T14:44:46;10.60;;;9.70;;
26181;SDS011;13927;51.534;11.866;2022-07-23T14:47:12;10.75;;;9.75;;
26181;SDS011;13927;51.534;11.866;2022-07-23T14:49:38;11.68;;;10.48;;
26181;SDS011;13927;51.534;11.866;2022-07-23T14:52:04;9.98;;;9.07;;
26181;SDS011;13927;51.534;11.866;2022-07-23T14:54:30;10.13;;;9.10;;
26181;SDS011;13927;51.534;11.866;2022-07-23T14:56:57;10.00;;;9.10;;
26181;SDS011;13927;51.534;11.866;2022-07-23T14:59:24;9.48;;;8.57;;
26181;SDS011;13927;51.534;11.866;2022-07-23T15:01:50;10.32;;;8.00;;
26181;SDS011;13927;51.534;11.866;2022-07-23T15:04:17;8.95;;;8.07;;
26181;SDS011;13927;51.534;11.866;2022-07-23T15:06:43;8.40;;;7.60;;
26181;SDS011;13927;51.534;11.866;2022-07-23T15:09:09;8.25;;;7.53;;
26181;SDS011;13927;51.534;11.866;2022-07-23T15:11:35;8.65;;;7.75;;
26181;SDS011;13927;51.534;11.866;2022-07-23T15:14:05;9.38;;;8.48;;